Time;durP1;ratioP1;P1;durP2;ratioP2;P2;SDS_P1;SDS_P2;PMS_P1;PMS_P2;Temp;Humidity;BMP_temperature;BMP_pressure;BME280_temperature;BME280_humidity;BME280_pressure;Samples;Min_cycle;Max_cycle;Signal;HPM_P1;HPM_P2
2021/12/11 00:00:15;;;;;;;;;;;1.70;1.40;;;2.15;100.00;94024.59;653717;212;24811;-73
2021/12/11 00:02:59;;;;;;;;;;;1.80;1.40;;;2.08;100.00;94031.69;653092;216;24842;-74
2021/12/11 00:05:40;;;;;;;;;;;1.80;1.40;;;2.14;100.00;94028.30;654287;212;24720;-74
2021/12/11 00:08:21;;;;;;;;;;;1.80;1.40;;;2.08;100.00;94030.34;653624;216;24733;-74
2021/12/11 00:11:09;;;;;;;;;;;1.70;1.40;;;2.11;100.00;94040.94;653020;216;25064;-74
2021/12/11 00:13:50;;;;;;;;;;;1.80;1.40;;;2.09;100.00;94038.78;652033;216;24821;-72
2021/12/11 00:16:31;;;;;;;;;;;1.80;1.40;;;2.09;100.00;94041.34;653651;216;24804;-73
2021/12/11 00:19:13;;;;;;;;;;;1.70;1.40;;;2.12;100.00;94050.92;653519;216;24814;-74
2021/12/11 00:21:55;;;;;;;;;;;1.80;1.40;;;2.20;100.00;94053.51;653391;216;24825;-74
2021/12/11 00:24:37;;;;;;;;;;;1.90;1.40;;;2.18;100.00;94073.16;653572;212;25390;-74
2021/12/11 00:27:21;;;;;;;;;;;1.80;1.40;;;2.10;100.00;94062.71;654753;216;24805;-74
2021/12/11 00:30:02;;;;;;;;;;;1.80;1.40;;;2.15;100.00;94066.30;655130;212;25672;-74
2021/12/11 00:32:43;;;;;;;;;;;1.80;1.40;;;2.19;100.00;94079.82;653285;212;24876;-74
2021/12/11 00:35:51;;;;;;;1.23;0.55;;;1.80;1.40;;;2.11;100.00;94069.50;640844;217;31971;-74
2021/12/11 00:38:34;;;;;;;0.40;0.40;;;1.70;1.40;;;2.16;100.00;94072.32;646546;212;31601;-73
2021/12/11 00:41:14;;;;;;;0.43;0.40;;;1.80;1.40;;;2.12;100.00;94077.02;645630;216;31914;-73
2021/12/11 00:44:01;;;;;;;;;;;1.70;1.40;;;2.08;100.00;94090.59;652689;216;24837;-74
2021/12/11 00:46:37;;;;;;;;;;;1.60;1.40;;;2.12;100.00;94091.77;653840;212;24766;-73
2021/12/11 00:49:18;;;;;;;;;;;1.70;1.40;;;2.12;100.00;94093.70;654388;212;24846;-74
2021/12/11 00:52:00;;;;;;;;;;;1.80;1.40;;;2.13;100.00;94102.45;653870;216;24863;-74
2021/12/11 00:54:42;;;;;;;;;;;1.70;1.40;;;2.09;100.00;94112.45;654045;216;24799;-74
2021/12/11 00:57:23;;;;;;;;;;;1.70;1.40;;;2.04;100.00;94115.52;653328;216;24844;-74
2021/12/11 01:00:08;;;;;;;;;;;1.70;1.40;;;2.04;100.00;94115.89;653164;216;24767;-74
2021/12/11 01:02:50;;;;;;;;;;;1.70;1.40;;;2.07;100.00;94122.56;649952;217;24904;-71
2021/12/11 01:05:34;;;;;;;;;;;1.70;1.40;;;2.03;100.00;94126.55;647016;216;25282;-74
2021/12/11 01:08:17;;;;;;;;;;;1.60;1.40;;;2.04;100.00;94133.64;648245;217;24819;-74
2021/12/11 01:11:08;;;;;;;;;;;1.80;1.40;;;2.03;100.00;94137.92;647795;215;24835;-73
2021/12/11 01:13:53;;;;;;;;;;;1.60;1.40;;;2.06;100.00;94140.16;652688;216;24719;-74
2021/12/11 01:16:35;;;;;;;;;;;1.70;1.40;;;2.05;100.00;94150.71;655110;216;25659;-74
2021/12/11 01:19:23;;;;;;;;;;;1.70;1.40;;;2.04;100.00;94158.22;655768;213;24853;-74
2021/12/11 01:22:22;;;;;;;;;;;1.70;1.40;;;2.11;100.00;94158.39;638122;217;24839;-75
2021/12/11 01:25:05;;;;;;;;;;;1.80;1.40;;;2.09;100.00;94166.70;655495;212;24856;-74
2021/12/11 01:27:51;;;;;;;;;;;1.80;1.40;;;2.14;100.00;94159.21;654782;212;24880;-74
2021/12/11 01:30:44;;;;;;;;;;;1.80;1.40;;;2.12;100.00;94178.00;655959;212;24885;-74
2021/12/11 01:35:53;;;;;;;;;;;1.60;1.40;;;2.08;100.00;94176.44;652553;216;24916;-74
2021/12/11 01:38:43;;;;;;;;;;;1.80;1.40;;;2.06;100.00;94183.56;629190;222;24824;-75
2021/12/11 01:41:30;;;;;;;;;;;1.70;1.40;;;2.03;100.00;94174.64;655514;216;24782;-74
2021/12/11 01:44:12;;;;;;;;;;;1.70;1.40;;;2.05;100.00;94191.13;654138;212;25359;-75
2021/12/11 01:47:02;;;;;;;;;;;1.70;1.40;;;1.96;100.00;94191.77;653162;212;24804;-75
2021/12/11 01:49:42;;;;;;;;;;;1.60;1.40;;;2.01;100.00;94190.70;653336;212;24832;-75
2021/12/11 01:52:37;;;;;;;;;;;1.70;1.40;;;1.97;100.00;94196.73;655944;216;24789;-74
2021/12/11 01:55:31;;;;;;;;;;;1.60;1.40;;;1.97;100.00;94198.48;649439;215;24822;-73
2021/12/11 01:58:11;;;;;;;;;;;1.60;1.40;;;2.03;100.00;94200.25;654772;216;24850;-75
2021/12/11 02:00:55;;;;;;;;;;;1.70;1.40;;;2.10;100.00;94213.68;652691;216;24840;-75
2021/12/11 02:03:38;;;;;;;;;;;1.70;1.40;;;2.07;100.00;94201.89;653432;216;24849;-74
2021/12/11 02:06:20;;;;;;;;;;;1.70;1.40;;;1.97;100.00;94206.56;642692;216;24831;-75
2021/12/11 02:09:14;;;;;;;;;;;1.60;1.40;;;2.03;100.00;94212.27;653207;216;25463;-74
2021/12/11 02:12:17;;;;;;;;;;;1.70;1.40;;;2.02;100.00;94215.17;653872;216;24928;-75
2021/12/11 02:15:01;;;;;;;;;;;1.60;1.40;;;2.00;100.00;94217.64;648996;217;24880;-74
2021/12/11 02:17:44;;;;;;;;;;;1.60;1.40;;;1.99;100.00;94216.16;654118;216;24813;-74
2021/12/11 02:20:26;;;;;;;;;;;1.60;1.40;;;2.01;100.00;94217.59;652912;212;24830;-75
2021/12/11 02:23:05;;;;;;;;;;;1.70;1.40;;;2.07;100.00;94222.26;653060;216;24812;-74
2021/12/11 02:25:46;;;;;;;;;;;1.70;1.40;;;1.97;100.00;94220.30;653962;216;24738;-74
2021/12/11 02:28:31;;;;;;;;;;;1.60;1.40;;;1.96;100.00;94227.15;653984;216;25096;-75
2021/12/11 02:31:17;;;;;;;;;;;1.60;1.40;;;2.05;100.00;94233.94;653092;216;24833;-75
2021/12/11 02:35:58;;;;;;;0.50;0.40;;;1.70;1.40;;;2.07;100.00;94240.28;647359;213;31529;-75
2021/12/11 02:38:43;;;;;;;;;;;1.70;1.40;;;2.03;100.00;94239.00;653603;216;24936;-74
2021/12/11 02:41:26;;;;;;;;;;;1.70;1.40;;;2.08;100.00;94256.57;653507;216;24914;-75
2021/12/11 02:44:24;;;;;;;;;;;1.80;1.40;;;2.13;100.00;94253.37;625320;225;24994;-75
2021/12/11 02:47:18;;;;;;;;;;;1.70;1.40;;;2.09;100.00;94247.09;649084;216;24986;-76
2021/12/11 02:50:12;;;;;;;;;;;1.70;1.40;;;2.04;100.00;94258.39;637263;221;24948;-74
2021/12/11 02:52:54;;;;;;;;;;;1.60;1.40;;;2.07;100.00;94255.78;653944;212;24958;-74
2021/12/11 02:55:38;;;;;;;;;;;1.70;1.40;;;2.06;100.00;94266.95;653531;213;25004;-75
2021/12/11 02:58:22;;;;;;;;;;;1.70;1.40;;;2.10;100.00;94267.94;649713;216;25509;-75
2021/12/11 03:01:05;;;;;;;;;;;1.80;1.40;;;2.09;100.00;94273.94;652500;216;25407;-74
2021/12/11 03:03:46;;;;;;;;;;;1.80;1.40;;;2.05;100.00;94282.20;653178;216;24879;-75
2021/12/11 03:06:34;;;;;;;;;;;1.70;1.40;;;2.04;100.00;94277.16;642172;216;24971;-75
2021/12/11 03:09:11;;;;;;;;;;;1.70;1.40;;;2.07;100.00;94279.24;655507;216;24837;-75
2021/12/11 03:11:54;;;;;;;;;;;1.80;1.40;;;2.05;100.00;94291.67;649036;217;25167;-74
2021/12/11 03:14:35;;;;;;;;;;;1.70;1.40;;;2.04;100.00;94283.20;653404;216;25307;-75
2021/12/11 03:17:17;;;;;;;;;;;1.60;1.40;;;2.05;100.00;94295.30;654159;216;24934;-74
2021/12/11 03:20:00;;;;;;;;;;;1.70;1.40;;;2.06;100.00;94294.44;653135;216;24956;-74
2021/12/11 03:22:46;;;;;;;;;;;1.70;1.40;;;2.01;100.00;94302.73;655350;212;25128;-75
2021/12/11 03:25:26;;;;;;;;;;;1.70;1.40;;;2.00;100.00;94306.48;652216;216;24827;-74
2021/12/11 03:28:08;;;;;;;;;;;1.60;1.40;;;2.09;100.00;94303.66;653385;216;24925;-75
2021/12/11 03:30:52;;;;;;;;;;;1.70;1.40;;;2.02;100.00;94314.91;653360;216;24934;-75
2021/12/11 03:35:51;;;;;;;0.70;0.60;;;1.70;1.40;;;2.05;100.00;94313.05;646035;212;31786;-73
2021/12/11 03:38:36;;;;;;;0.50;0.30;;;1.70;1.40;;;2.06;100.00;94321.43;647173;216;31605;-74
2021/12/11 03:41:18;;;;;;;0.60;0.30;;;1.70;1.40;;;2.02;100.00;94325.55;619309;226;31976;-75
2021/12/11 03:43:59;;;;;;;;;;;1.60;1.40;;;2.04;100.00;94333.28;654186;216;24823;-75
2021/12/11 03:46:41;;;;;;;;;;;1.60;1.40;;;2.07;100.00;94341.52;653043;216;24823;-74
2021/12/11 03:49:22;;;;;;;;;;;1.70;1.40;;;2.04;100.00;94342.42;652950;216;24763;-75
2021/12/11 03:52:04;;;;;;;;;;;1.70;1.40;;;2.04;100.00;94348.25;653675;212;24938;-75
2021/12/11 03:54:45;;;;;;;;;;;1.70;1.40;;;2.05;100.00;94354.63;653739;216;24835;-74
2021/12/11 03:57:27;;;;;;;;;;;1.70;1.40;;;2.00;100.00;94353.15;652979;216;24827;-75
2021/12/11 04:00:10;;;;;;;;;;;1.60;1.40;;;1.97;100.00;94355.45;655218;212;24931;-75
2021/12/11 04:02:53;;;;;;;;;;;1.60;1.40;;;1.95;100.00;94358.36;653626;216;24835;-75
2021/12/11 04:05:32;;;;;;;;;;;1.60;1.40;;;1.90;100.00;94356.25;645736;212;24888;-75
2021/12/11 04:08:14;;;;;;;;;;;1.50;1.40;;;1.85;100.00;94358.56;653518;216;24825;-76
2021/12/11 04:10:55;;;;;;;;;;;1.50;1.40;;;1.82;100.00;94363.44;653468;216;24812;-74
2021/12/11 04:13:36;;;;;;;;;;;1.40;1.40;;;1.76;100.00;94367.00;649889;216;24823;-75
2021/12/11 04:16:17;;;;;;;;;;;1.40;1.40;;;1.72;100.00;94369.97;655151;216;24845;-75
2021/12/11 04:18:59;;;;;;;;;;;1.40;1.40;;;1.70;100.00;94377.45;652835;216;24868;-73
2021/12/11 04:21:41;;;;;;;;;;;1.30;1.40;;;1.68;100.00;94372.55;653812;216;24815;-74
2021/12/11 04:24:22;;;;;;;;;;;1.30;1.40;;;1.60;100.00;94387.25;654527;212;24829;-75
2021/12/11 04:27:03;;;;;;;;;;;1.20;1.40;;;1.60;100.00;94380.36;653288;212;24950;-75
2021/12/11 04:29:47;;;;;;;;;;;1.20;1.40;;;1.53;100.00;94391.56;653720;216;24818;-73
2021/12/11 04:32:28;;;;;;;;;;;1.10;1.40;;;1.51;100.00;94398.03;654367;216;25032;-73
2021/12/11 04:35:54;;;;;;;0.45;0.45;;;1.10;1.40;;;1.52;100.00;94388.05;646660;216;31513;-74
2021/12/11 04:38:35;;;;;;;0.52;0.47;;;1.10;1.40;;;1.53;100.00;94396.85;647543;216;31507;-75
2021/12/11 04:41:18;;;;;;;0.60;0.33;;;1.10;1.40;;;1.51;100.00;94408.28;647892;212;31469;-74
2021/12/11 04:43:59;;;;;;;0.80;0.70;;;1.10;1.40;;;1.55;100.00;94410.30;647387;212;31595;-75
2021/12/11 04:46:40;;;;;;;0.50;0.50;;;1.10;1.40;;;1.56;100.00;94413.23;647667;216;42198;-74
2021/12/11 04:52:30;;;;;;;;;;;1.10;1.40;;;1.49;100.00;94417.34;653319;212;24812;-75
2021/12/11 04:55:16;;;;;;;;;;;1.10;1.40;;;1.46;100.00;94426.81;653513;216;24819;-73
2021/12/11 05:00:47;;;;;;;;;;;1.00;1.40;;;1.46;100.00;94433.27;654267;212;24926;-74
2021/12/11 05:06:36;;;;;;;;;;;1.10;1.40;;;1.46;100.00;94435.89;641419;212;24911;-75
2021/12/11 05:12:11;;;;;;;;;;;1.00;1.40;;;1.44;100.00;94446.16;652958;216;24824;-75
2021/12/11 05:14:50;;;;;;;;;;;1.00;1.40;;;1.43;100.00;94447.48;653924;212;24820;-75
2021/12/11 05:17:32;;;;;;;;;;;1.00;1.40;;;1.45;100.00;94455.12;654093;216;24952;-75
2021/12/11 05:20:13;;;;;;;;;;;1.10;1.40;;;1.46;100.00;94457.25;654960;212;24813;-75
2021/12/11 05:22:57;;;;;;;;;;;1.10;1.40;;;1.46;100.00;94459.17;654202;212;24896;-74
2021/12/11 05:25:39;;;;;;;;;;;1.10;1.40;;;1.45;100.00;94468.09;653841;212;25221;-73
2021/12/11 05:28:20;;;;;;;;;;;1.00;1.40;;;1.47;100.00;94469.58;653846;216;25361;-74
2021/12/11 05:31:01;;;;;;;;;;;1.10;1.40;;;1.47;100.00;94467.39;653271;216;25229;-73
2021/12/11 05:35:54;;;;;;;0.60;0.30;;;1.10;1.40;;;1.47;100.00;94482.24;620129;226;31857;-75
2021/12/11 05:38:39;;;;;;;;;;;1.10;1.40;;;1.50;100.00;94486.70;654417;212;24819;-75
2021/12/11 05:41:20;;;;;;;;;;;1.10;1.40;;;1.54;100.00;94492.88;653540;212;25071;-75
2021/12/11 05:44:01;;;;;;;;;;;1.20;1.40;;;1.53;100.00;94494.00;653172;212;25297;-75
2021/12/11 05:46:42;;;;;;;;;;;1.10;1.40;;;1.49;100.00;94494.87;653733;216;24813;-73
2021/12/11 05:49:25;;;;;;;;;;;1.10;1.40;;;1.53;100.00;94497.16;653118;216;24864;-75
2021/12/11 05:52:05;;;;;;;;;;;1.10;1.40;;;1.54;100.00;94504.58;653872;212;25046;-75
2021/12/11 05:54:47;;;;;;;;;;;1.10;1.40;;;1.54;100.00;94506.02;654023;216;24819;-74
2021/12/11 05:57:28;;;;;;;;;;;1.00;1.40;;;1.56;100.00;94506.12;653200;216;25266;-75
2021/12/11 06:00:10;;;;;;;;;;;1.10;1.40;;;1.61;100.00;94508.03;653789;212;24915;-73
2021/12/11 06:02:52;;;;;;;;;;;1.10;1.40;;;1.62;100.00;94510.27;649784;216;24983;-74
2021/12/11 06:05:33;;;;;;;;;;;1.20;1.40;;;1.63;100.00;94520.63;647115;216;24892;-74
2021/12/11 06:08:14;;;;;;;;;;;1.20;1.40;;;1.66;100.00;94518.48;654373;216;24830;-74
2021/12/11 06:10:56;;;;;;;;;;;1.20;1.40;;;1.66;100.00;94522.97;650146;214;25275;-75
2021/12/11 06:13:37;;;;;;;;;;;1.30;1.40;;;1.73;100.00;94521.37;654360;216;24758;-74
2021/12/11 06:16:19;;;;;;;;;;;1.40;1.40;;;1.71;100.00;94530.25;654032;216;25436;-75
2021/12/11 06:19:04;;;;;;;;;;;1.30;1.40;;;1.75;100.00;94534.94;653051;212;24740;-75
2021/12/11 06:21:44;;;;;;;;;;;1.40;1.40;;;1.75;100.00;94533.02;653363;212;25036;-74
2021/12/11 06:24:26;;;;;;;;;;;1.40;1.40;;;1.73;100.00;94545.15;653518;212;24949;-74
2021/12/11 06:27:08;;;;;;;;;;;1.40;1.40;;;1.73;100.00;94549.11;653547;212;24826;-74
2021/12/11 06:29:49;;;;;;;;;;;1.40;1.40;;;1.70;100.00;94555.20;654844;216;24787;-74
2021/12/11 06:32:36;;;;;;;;;;;1.40;1.40;;;1.76;100.00;94561.92;652222;216;24816;-75
2021/12/11 06:35:52;;;;;;;;;;;1.40;1.40;;;1.73;100.00;94568.98;654840;216;24827;-75
2021/12/11 06:38:33;;;;;;;;;;;1.40;1.40;;;1.76;100.00;94570.41;648864;214;24942;-75
2021/12/11 06:41:20;;;;;;;;;;;1.40;1.40;;;1.78;100.00;94583.98;654755;216;24811;-75
2021/12/11 06:44:02;;;;;;;;;;;1.40;1.40;;;1.81;100.00;94591.83;653953;216;24840;-76
2021/12/11 06:46:44;;;;;;;;;;;1.40;1.40;;;1.83;100.00;94594.77;652988;216;24913;-75
2021/12/11 06:49:25;;;;;;;;;;;1.50;1.40;;;1.77;100.00;94598.84;654181;216;24850;-73
2021/12/11 06:52:07;;;;;;;;;;;1.40;1.40;;;1.80;100.00;94614.65;653555;212;24928;-75
2021/12/11 06:54:51;;;;;;;;;;;1.50;1.40;;;1.79;100.00;94615.83;653162;212;24826;-76
2021/12/11 06:57:33;;;;;;;;;;;1.50;1.40;;;1.79;100.00;94619.89;653110;216;24813;-75
2021/12/11 07:00:15;;;;;;;;;;;1.50;1.40;;;1.79;100.00;94627.64;653935;216;24724;-75
2021/12/11 07:02:56;;;;;;;;;;;1.40;1.40;;;1.70;100.00;94637.75;652407;216;25592;-76
2021/12/11 07:05:44;;;;;;;;;;;1.30;1.40;;;1.71;100.00;94634.38;650872;212;25547;-76
2021/12/11 07:08:31;;;;;;;;;;;1.40;1.40;;;1.67;100.00;94639.97;653390;212;24748;-75
2021/12/11 07:11:12;;;;;;;;;;;1.30;1.40;;;1.69;100.00;94644.22;653909;212;24810;-75
2021/12/11 07:13:53;;;;;;;;;;;1.40;1.40;;;1.65;100.00;94650.39;652923;212;25052;-75
2021/12/11 07:16:36;;;;;;;;;;;1.30;1.40;;;1.65;100.00;94657.33;655215;212;24921;-74
2021/12/11 07:19:24;;;;;;;;;;;1.30;1.40;;;1.65;100.00;94659.58;621451;229;24897;-74
2021/12/11 07:22:11;;;;;;;;;;;1.30;1.40;;;1.63;100.00;94670.53;653863;216;24840;-74
2021/12/11 07:24:56;;;;;;;;;;;1.30;1.40;;;1.66;100.00;94678.91;654265;216;24851;-75
2021/12/11 07:27:37;;;;;;;;;;;1.30;1.40;;;1.67;100.00;94677.84;653031;216;25221;-75
2021/12/11 07:30:18;;;;;;;;;;;1.30;1.40;;;1.64;100.00;94689.66;653426;212;24973;-74
2021/12/11 07:33:00;;;;;;;;;;;1.30;1.40;;;1.64;100.00;94696.28;654362;212;24733;-75
2021/12/11 07:35:54;;;;;;;0.60;0.40;;;1.30;1.40;;;1.66;100.00;94699.11;647313;212;32185;-74
2021/12/11 07:38:35;;;;;;;;;;;1.30;1.40;;;1.68;100.00;94705.98;653611;216;24851;-74
2021/12/11 07:41:17;;;;;;;;;;;1.30;1.40;;;1.69;100.00;94713.56;655358;212;24801;-74
2021/12/11 07:43:58;;;;;;;;;;;1.40;1.40;;;1.72;100.00;94721.63;652801;212;24823;-75
2021/12/11 07:46:39;;;;;;;;;;;1.40;1.40;;;1.75;100.00;94740.28;653507;216;25052;-74
2021/12/11 07:49:20;;;;;;;;;;;1.40;1.40;;;1.77;100.00;94742.84;653555;216;24825;-74
2021/12/11 07:52:02;;;;;;;;;;;1.40;1.40;;;1.79;100.00;94768.28;654132;212;24910;-71
2021/12/11 07:54:49;;;;;;;;;;;1.20;1.40;;;1.45;100.00;94763.43;653177;216;25420;-75
2021/12/11 07:57:30;;;;;;;;;;;0.80;1.40;;;1.29;100.00;94781.90;653524;212;24814;-75
2021/12/11 08:00:16;;;;;;;;;;;0.70;1.40;;;1.18;100.00;94783.25;654185;216;24827;-75
2021/12/11 08:02:57;;;;;;;;;;;0.60;1.40;;;1.18;100.00;94796.44;649030;217;24823;-76
2021/12/11 08:05:38;;;;;;;;;;;0.70;1.40;;;1.16;100.00;94798.03;645297;212;24890;-76
2021/12/11 08:08:23;;;;;;;;;;;0.60;1.40;;;1.20;100.00;94803.70;653790;212;24898;-76
2021/12/11 08:11:04;;;;;;;;;;;0.60;1.40;;;1.14;100.00;94809.66;652995;216;24820;-75
2021/12/11 08:13:46;;;;;;;;;;;0.60;1.40;;;1.17;100.00;94812.77;653588;216;25058;-75
2021/12/11 08:16:32;;;;;;;;;;;0.60;1.40;;;1.16;100.00;94817.95;653483;212;24811;-75
2021/12/11 08:19:08;;;;;;;;;;;0.60;1.40;;;1.26;100.00;94818.36;654550;212;24940;-75
2021/12/11 08:21:50;;;;;;;;;;;0.60;1.40;;;1.29;100.00;94827.23;654204;216;24726;-75
2021/12/11 08:24:31;;;;;;;;;;;0.70;1.40;;;1.31;100.00;94832.98;652586;216;25293;-76
2021/12/11 08:27:15;;;;;;;;;;;0.70;1.40;;;1.31;100.00;94841.09;653444;216;24819;-76
2021/12/11 08:29:55;;;;;;;;;;;0.70;1.40;;;1.30;100.00;94843.92;622669;226;24873;-75
2021/12/11 08:32:36;;;;;;;;;;;0.70;1.40;;;1.31;100.00;94850.76;653174;216;24995;-76
2021/12/11 08:35:57;;;;;;;2.50;0.60;;;0.70;1.40;;;1.31;100.00;94850.28;646689;212;31501;-76
2021/12/11 08:38:41;;;;;;;0.40;0.40;;;0.70;1.40;;;1.30;100.00;94855.00;647367;216;31527;-76
2021/12/11 08:41:24;;;;;;;;;;;0.80;1.40;;;1.36;100.00;94864.34;654096;216;24826;-76
2021/12/11 08:44:10;;;;;;;;;;;0.80;1.40;;;1.34;100.00;94872.50;652737;216;24932;-76
2021/12/11 08:46:48;;;;;;;;;;;0.80;1.40;;;1.44;100.00;94874.52;652994;212;24974;-76
2021/12/11 08:49:30;;;;;;;;;;;0.90;1.40;;;1.36;100.00;94879.56;652721;216;24731;-77
2021/12/11 08:52:13;;;;;;;;;;;0.90;1.40;;;1.41;100.00;94894.42;653132;216;24804;-76
2021/12/11 08:54:55;;;;;;;;;;;0.90;1.40;;;1.48;100.00;94897.82;653766;212;24722;-76
2021/12/11 08:57:38;;;;;;;;;;;0.90;1.40;;;1.48;100.00;94908.56;652892;212;24897;-76
2021/12/11 09:00:18;;;;;;;;;;;0.90;1.40;;;1.51;100.00;94908.22;653966;216;24706;-76
2021/12/11 09:03:07;;;;;;;;;;;0.90;1.40;;;1.53;100.00;94910.27;652663;216;24898;-76
2021/12/11 09:05:49;;;;;;;;;;;1.00;1.40;;;1.53;100.00;94921.80;652996;212;24758;-76
2021/12/11 09:08:33;;;;;;;;;;;1.00;1.40;;;1.48;100.00;94926.18;622396;226;24908;-74
2021/12/11 09:11:17;;;;;;;;;;;1.00;1.40;;;1.55;100.00;94934.84;653603;216;24813;-74
2021/12/11 09:14:01;;;;;;;;;;;1.00;1.40;;;1.56;100.00;94943.61;652560;216;24773;-75
2021/12/11 09:16:45;;;;;;;;;;;1.00;1.40;;;1.54;100.00;94948.99;653727;212;24835;-76
2021/12/11 09:19:28;;;;;;;;;;;1.00;1.40;;;1.60;100.00;94951.85;653613;212;24936;-75
2021/12/11 09:22:10;;;;;;;;;;;1.00;1.40;;;1.49;100.00;94958.45;653070;216;24907;-76
2021/12/11 09:24:54;;;;;;;;;;;1.00;1.40;;;1.61;100.00;94964.56;653007;212;24738;-76
2021/12/11 09:27:42;;;;;;;;;;;1.00;1.40;;;1.72;100.00;94968.06;653430;216;24966;-76
2021/12/11 09:30:41;;;;;;;;;;;1.00;1.40;;;1.70;100.00;94972.65;649673;217;25116;-73
2021/12/11 09:35:53;;;;;;;;;;;1.10;1.40;;;1.70;100.00;94985.91;654202;212;25730;-76
2021/12/11 09:38:37;;;;;;;;;;;1.10;1.40;;;1.75;100.00;94985.55;653336;213;25394;-74
2021/12/11 09:41:19;;;;;;;;;;;1.10;1.40;;;1.73;100.00;94986.13;650099;215;24812;-73
2021/12/11 09:44:00;;;;;;;;;;;1.10;1.40;;;1.68;100.00;94991.56;653846;212;24815;-76
2021/12/11 09:46:48;;;;;;;;;;;1.10;1.40;;;1.68;100.00;94988.67;653455;216;24736;-77
2021/12/11 09:49:36;;;;;;;;;;;1.20;1.40;;;1.81;100.00;94995.25;652910;216;24826;-75
2021/12/11 09:52:23;;;;;;;;;;;1.20;1.40;;;1.88;100.00;94992.91;652979;212;24835;-76
2021/12/11 09:55:06;;;;;;;;;;;1.30;1.40;;;1.93;100.00;94997.14;653767;216;25389;-73
2021/12/11 09:57:49;;;;;;;;;;;1.30;1.40;;;1.85;100.00;94996.55;653924;216;24816;-76
2021/12/11 10:00:37;;;;;;;;;;;1.30;1.40;;;1.90;100.00;94997.13;652635;214;24754;-77
2021/12/11 10:03:18;;;;;;;;;;;1.40;1.40;;;1.92;100.00;95000.83;655201;216;24735;-77
2021/12/11 10:06:13;;;;;;;;;;;1.40;1.40;;;1.94;100.00;94996.56;653557;216;24819;-75
2021/12/11 10:09:17;;;;;;;;;;;1.40;1.40;;;2.00;100.00;94997.17;653170;212;24865;-77
2021/12/11 10:11:38;;;;;;;;;;;1.50;1.40;;;1.98;100.00;95002.88;653271;212;24831;-76
2021/12/11 10:14:23;;;;;;;;;;;1.40;1.40;;;2.05;100.00;95008.02;653765;212;24925;-76
2021/12/11 10:17:04;;;;;;;;;;;1.40;1.40;;;2.17;100.00;95012.59;654127;216;24821;-76
2021/12/11 10:19:45;;;;;;;;;;;1.50;1.40;;;2.23;100.00;95017.38;654868;216;24886;-75
2021/12/11 10:22:27;;;;;;;;;;;1.40;1.40;;;2.19;100.00;95028.22;653688;212;24833;-76
2021/12/11 10:25:10;;;;;;;;;;;1.40;1.40;;;2.08;100.00;95027.48;654983;216;24880;-74
2021/12/11 10:27:59;;;;;;;;;;;1.60;1.40;;;2.30;100.00;95033.15;653262;212;25336;-76
2021/12/11 10:30:41;;;;;;;;;;;1.70;1.40;;;2.36;100.00;95039.75;653955;216;24822;-76
2021/12/11 10:35:51;;;;;;;0.60;0.60;;;1.80;1.40;;;2.44;100.00;95040.77;646932;212;31518;-76
2021/12/11 10:38:33;;;;;;;1.65;0.88;;;1.80;1.40;;;2.46;100.00;95046.06;646990;212;31521;-74
2021/12/11 10:41:15;;;;;;;0.62;0.55;;;1.80;1.40;;;2.46;100.00;95054.89;647202;216;31506;-75
2021/12/11 10:43:56;;;;;;;0.55;0.55;;;1.80;1.40;;;2.47;100.00;95058.69;646670;216;31583;-76
2021/12/11 10:46:38;;;;;;;0.60;0.60;;;1.70;1.40;;;2.53;100.00;95066.84;646371;216;31519;-76
2021/12/11 10:49:20;;;;;;;0.70;0.30;;;1.80;1.40;;;2.34;100.00;95072.80;646867;216;31552;-75
2021/12/11 10:52:04;;;;;;;0.80;0.80;;;1.70;1.40;;;2.28;100.00;95078.77;646344;212;42122;-76
2021/12/11 10:54:45;;;;;;;0.70;0.40;;;1.60;1.40;;;2.20;100.00;95083.14;630434;221;31665;-75
2021/12/11 10:57:33;;;;;;;;;;;1.60;1.40;;;2.28;100.00;95082.99;652055;216;24813;-76
2021/12/11 11:00:18;;;;;;;;;;;1.50;1.40;;;2.21;100.00;95089.30;653520;216;24819;-76
2021/12/11 11:02:59;;;;;;;;;;;1.50;1.40;;;2.12;100.00;95092.68;653940;212;24810;-76
2021/12/11 11:05:40;;;;;;;;;;;1.40;1.40;;;2.00;100.00;95101.73;645447;216;24868;-76
2021/12/11 11:08:22;;;;;;;;;;;1.40;1.40;;;2.01;100.00;95106.88;652821;216;24854;-76
2021/12/11 11:11:04;;;;;;;;;;;1.40;1.40;;;1.97;100.00;95112.95;654810;216;24830;-76
2021/12/11 11:13:46;;;;;;;;;;;1.40;1.40;;;1.98;100.00;95122.84;649211;216;25105;-76
2021/12/11 11:16:27;;;;;;;;;;;1.30;1.40;;;1.94;100.00;95126.78;652296;212;24822;-77
2021/12/11 11:19:08;;;;;;;;;;;1.40;1.40;;;2.07;100.00;95128.11;654128;216;25245;-76
2021/12/11 11:21:49;;;;;;;;;;;1.40;1.40;;;2.07;100.00;95133.45;635390;221;24873;-77
2021/12/11 11:24:31;;;;;;;;;;;1.40;1.40;;;2.13;100.00;95134.30;652938;212;24864;-77
2021/12/11 11:27:15;;;;;;;;;;;1.50;1.40;;;2.15;100.00;95138.52;649738;216;25437;-76
2021/12/11 11:29:56;;;;;;;;;;;1.50;1.40;;;2.09;100.00;95146.14;654693;216;24741;-77
2021/12/11 11:32:38;;;;;;;;;;;1.50;1.40;;;2.09;100.00;95152.98;653408;212;24831;-76
2021/12/11 11:35:53;;;;;;;0.50;0.50;;;1.50;1.40;;;2.12;100.00;95156.85;645448;216;31526;-77
2021/12/11 11:38:41;;;;;;;0.80;0.80;;;1.50;1.40;;;2.23;100.00;95156.67;645770;216;42707;-76
2021/12/11 11:41:23;;;;;;;;;;;1.50;1.40;;;2.19;100.00;95161.86;654228;216;24732;-77
2021/12/11 11:44:10;;;;;;;;;;;1.50;1.40;;;2.17;100.00;95165.76;653476;216;24846;-75
2021/12/11 11:46:51;;;;;;;;;;;1.50;1.40;;;2.27;100.00;95166.96;652984;215;25065;-74
2021/12/11 11:49:38;;;;;;;;;;;1.60;1.40;;;2.28;100.00;95177.45;654672;216;24845;-78
2021/12/11 11:52:26;;;;;;;;;;;1.60;1.40;;;2.26;100.00;95175.56;653730;216;24821;-76
2021/12/11 11:55:13;;;;;;;;;;;1.60;1.40;;;2.29;100.00;95187.67;653174;214;25375;-77
2021/12/11 11:57:57;;;;;;;;;;;1.70;1.40;;;2.19;100.00;95191.91;654163;216;24730;-77
2021/12/11 12:00:43;;;;;;;;;;;1.60;1.40;;;2.16;100.00;95192.11;654268;212;24816;-76
2021/12/11 12:03:23;;;;;;;;;;;1.60;1.40;;;2.32;100.00;95192.98;650023;217;24927;-76
2021/12/11 12:06:13;;;;;;;;;;;1.70;1.40;;;2.34;100.00;95196.58;647121;216;24857;-75
2021/12/11 12:08:54;;;;;;;;;;;1.70;1.40;;;2.21;100.00;95201.92;653837;213;24930;-75
2021/12/11 12:11:41;;;;;;;;;;;1.70;1.40;;;2.23;100.00;95202.42;654249;212;24988;-76
2021/12/11 12:14:23;;;;;;;;;;;1.70;1.40;;;2.12;100.00;95207.38;654605;212;24964;-77
2021/12/11 12:17:04;;;;;;;;;;;1.60;1.40;;;2.22;100.00;95212.31;653093;212;25229;-76
2021/12/11 12:19:51;;;;;;;;;;;1.70;1.40;;;2.20;100.00;95215.34;654099;216;24741;-74
2021/12/11 12:22:39;;;;;;;;;;;1.60;1.40;;;2.23;100.00;95222.88;654293;212;24807;-77
2021/12/11 12:25:20;;;;;;;;;;;1.60;1.40;;;2.25;100.00;95230.81;652812;216;24816;-77
2021/12/11 12:28:04;;;;;;;;;;;1.70;1.40;;;2.19;100.00;95233.52;654041;212;25325;-78
2021/12/11 12:30:46;;;;;;;;;;;1.70;1.40;;;2.30;100.00;95239.02;655248;212;25294;-76
2021/12/11 12:35:56;;;;;;;;;;;1.70;1.40;;;2.35;100.00;95231.78;653437;216;25316;-76
2021/12/11 12:38:42;;;;;;;;;;;1.80;1.40;;;2.62;100.00;95230.76;653806;212;24800;-76
2021/12/11 12:41:25;;;;;;;;;;;2.10;1.40;;;2.70;100.00;95230.90;653787;216;24866;-77
2021/12/11 12:44:17;;;;;;;;;;;2.10;1.40;;;2.68;100.00;95240.42;654301;216;24812;-77
2021/12/11 12:46:58;;;;;;;;;;;2.10;1.40;;;2.57;100.00;95248.26;649165;214;24863;-76
2021/12/11 12:49:40;;;;;;;;;;;2.00;1.40;;;2.71;100.00;95245.09;653806;216;24900;-77
2021/12/11 12:52:30;;;;;;;;;;;2.10;1.40;;;2.75;100.00;95255.71;653753;216;25153;-76
2021/12/11 12:55:18;;;;;;;;;;;2.10;1.40;;;2.77;100.00;95263.05;653765;216;24951;-76
2021/12/11 12:57:59;;;;;;;;;;;2.10;1.40;;;2.66;100.00;95269.90;654200;216;24825;-76
2021/12/11 13:00:42;;;;;;;;;;;2.00;1.40;;;2.53;100.00;95274.23;649572;215;24861;-76
2021/12/11 13:03:22;;;;;;;;;;;1.90;1.40;;;2.57;100.00;95277.37;622986;224;25385;-76
2021/12/11 13:06:06;;;;;;;;;;;1.90;1.40;;;2.39;100.00;95288.84;643560;212;24766;-76
2021/12/11 13:08:49;;;;;;;;;;;1.80;1.40;;;2.39;100.00;95295.20;652562;216;24707;-76
2021/12/11 13:11:45;;;;;;;;;;;1.80;1.40;;;2.41;100.00;95299.88;622016;226;24893;-77